Time;durP1;ratioP1;P1;durP2;ratioP2;P2;SDS_P1;SDS_P2;PMS_P1;PMS_P2;Temp;Humidity;BMP_temperature;BMP_pressure;BME280_temperature;BME280_humidity;BME280_pressure;Samples;Min_cycle;Max_cycle;Signal;HPM_P1;HPM_P2
2023/01/27 00:01:51;;;;;;;16.20;7.90;;;4.50;99.90;;;;;;4859666;29;20037;-79
2023/01/27 00:04:16;;;;;;;11.38;6.25;;;4.50;99.90;;;;;;4890191;29;20068;-79
2023/01/27 00:06:42;;;;;;;20.08;11.93;;;4.50;99.90;;;;;;4874731;29;20040;-78
2023/01/27 00:09:08;;;;;;;12.35;6.93;;;4.50;99.90;;;;;;4875006;29;20037;-78
2023/01/27 00:14:18;;;;;;;13.25;7.13;;;4.60;99.90;;;;;;4890469;29;20033;-78
2023/01/27 00:16:44;;;;;;;23.35;12.90;;;4.60;99.90;;;;;;4890275;29;20108;-78
2023/01/27 00:19:10;;;;;;;12.77;5.90;;;4.60;99.90;;;;;;4859137;29;20033;-78
2023/01/27 00:24:35;;;;;;;7.78;4.43;;;4.50;99.90;;;;;;4890414;29;20041;-78
2023/01/27 00:27:02;;;;;;;10.15;5.45;;;4.40;99.90;;;;;;4891711;29;20065;-78
2023/01/27 00:29:28;;;;;;;14.95;7.55;;;4.40;99.90;;;;;;4890080;29;20032;-79
2023/01/27 00:34:40;;;;;;;11.40;7.20;;;4.30;99.90;;;;;;4890274;29;20037;-79
2023/01/27 00:37:06;;;;;;;11.40;5.72;;;4.20;99.90;;;;;;4890243;29;20377;-79
2023/01/27 00:39:32;;;;;;;9.50;4.38;;;4.20;99.90;;;;;;4890176;29;20022;-78
2023/01/27 00:41:58;;;;;;;16.15;6.40;;;4.10;99.90;;;;;;4890198;29;20044;-79
2023/01/27 00:44:24;;;;;;;28.10;13.55;;;4.10;99.90;;;;;;4874569;29;20036;-79
2023/01/27 00:46:50;;;;;;;23.83;12.35;;;4.00;99.90;;;;;;4874288;29;20078;-79
2023/01/27 00:49:17;;;;;;;22.85;13.18;;;3.90;99.90;;;;;;4859283;29;20045;-79
2023/01/27 00:51:43;;;;;;;10.52;6.25;;;3.90;99.90;;;;;;4890063;29;20040;-79
2023/01/27 00:54:09;;;;;;;27.38;8.82;;;3.90;99.90;;;;;;4874556;29;20025;-78
2023/01/27 00:56:35;;;;;;;23.10;11.52;;;4.00;99.90;;;;;;4893546;29;20033;-78
2023/01/27 00:59:03;;;;;;;11.88;5.32;;;4.00;99.90;;;;;;4893378;29;20060;-78
2023/01/27 01:01:29;;;;;;;17.85;5.25;;;4.00;99.90;;;;;;4892886;29;20036;-78
2023/01/27 01:03:57;;;;;;;11.63;4.95;;;4.10;99.90;;;;;;4893605;29;20036;-79
2023/01/27 01:06:23;;;;;;;19.67;6.50;;;4.10;99.90;;;;;;4856387;29;20046;-78
2023/01/27 01:08:52;;;;;;;9.82;7.18;;;4.10;99.90;;;;;;4856268;29;20034;-78
2023/01/27 01:11:19;;;;;;;12.00;6.40;;;4.20;99.90;;;;;;4857584;29;20038;-78
2023/01/27 01:13:46;;;;;;;14.15;5.68;;;4.20;99.90;;;;;;4856258;29;20034;-78
2023/01/27 01:16:16;;;;;;;22.23;8.13;;;4.20;99.90;;;;;;4849038;29;20032;-78
2023/01/27 01:18:42;;;;;;;17.98;5.72;;;4.20;99.90;;;;;;4894564;29;20065;-78
2023/01/27 01:21:09;;;;;;;19.58;6.90;;;4.20;99.90;;;;;;4877826;29;20040;-78
2023/01/27 01:23:42;;;;;;;11.48;5.22;;;4.20;99.90;;;;;;4893156;29;20033;-79
2023/01/27 01:26:11;;;;;;;10.98;5.30;;;4.20;99.90;;;;;;4893203;29;20057;-79
2023/01/27 01:28:37;;;;;;;11.70;3.72;;;4.20;99.90;;;;;;4892969;29;20033;-78
2023/01/27 01:31:08;;;;;;;19.02;5.00;;;4.20;99.90;;;;;;4892825;29;20045;-78
2023/01/27 01:33:34;;;;;;;7.78;3.58;;;4.20;99.90;;;;;;4892972;29;20032;-79
2023/01/27 01:36:12;;;;;;;7.85;4.07;;;4.30;99.90;;;;;;4893044;29;20819;-78
2023/01/27 01:38:39;;;;;;;14.00;4.70;;;4.30;99.90;;;;;;4892839;29;20032;-77
2023/01/27 01:41:14;;;;;;;6.28;4.70;;;4.30;99.90;;;;;;4892916;29;20033;-79
2023/01/27 01:43:40;;;;;;;16.80;4.18;;;4.30;99.90;;;;;;4894053;29;20029;-79
2023/01/27 01:46:09;;;;;;;26.70;7.78;;;4.30;99.90;;;;;;4892529;29;20036;-77
2023/01/27 01:48:50;;;;;;;5.60;3.00;;;4.30;99.90;;;;;;4892923;29;20066;-79
2023/01/27 01:51:26;;;;;;;3.50;2.70;;;4.30;99.90;;;;;;4892515;29;20101;-78
2023/01/27 01:54:16;;;;;;;9.98;4.57;;;4.30;99.90;;;;;;4893858;29;20033;-78
2023/01/27 01:56:46;;;;;;;7.93;3.38;;;4.30;99.90;;;;;;4892698;29;20430;-79
2023/01/27 01:59:21;;;;;;;10.40;4.15;;;4.30;99.90;;;;;;4892156;29;20044;-79
2023/01/27 02:01:47;;;;;;;9.07;2.78;;;4.30;99.90;;;;;;4892229;29;20036;-79
2023/01/27 02:04:18;;;;;;;10.63;3.35;;;4.30;99.90;;;;;;4877378;29;20041;-79
2023/01/27 02:07:02;;;;;;;13.57;4.07;;;4.30;99.90;;;;;;4892552;29;20040;-78
2023/01/27 02:09:28;;;;;;;5.68;3.95;;;4.30;99.90;;;;;;4892337;29;20037;-79
2023/01/27 02:11:56;;;;;;;20.60;4.05;;;4.30;99.90;;;;;;4892098;29;20063;-78
2023/01/27 02:14:22;;;;;;;7.35;3.85;;;4.20;99.90;;;;;;4876315;29;20037;-78
2023/01/27 02:16:48;;;;;;;9.40;3.72;;;4.30;99.90;;;;;;4871632;29;20105;-78
2023/01/27 02:19:24;;;;;;;9.15;4.22;;;4.30;99.90;;;;;;4862176;29;20025;-78
2023/01/27 02:21:54;;;;;;;13.15;3.50;;;4.20;99.90;;;;;;4855223;29;20045;-78
2023/01/27 02:24:24;;;;;;;5.07;4.57;;;4.30;99.90;;;;;;4855161;29;20175;-78
2023/01/27 02:26:50;;;;;;;5.32;4.25;;;4.30;99.90;;;;;;4854845;29;20037;-78
2023/01/27 02:29:16;;;;;;;8.52;5.15;;;4.30;99.90;;;;;;4854897;29;20124;-78
2023/01/27 02:31:42;;;;;;;5.13;4.47;;;4.30;99.90;;;;;;4864389;29;20053;-79
2023/01/27 02:34:19;;;;;;;10.80;3.30;;;4.30;99.90;;;;;;4873437;29;20037;-78
2023/01/27 02:36:54;;;;;;;11.15;3.95;;;4.20;99.90;;;;;;4873212;29;20037;-78
2023/01/27 02:39:22;;;;;;;11.45;5.03;;;4.30;99.90;;;;;;4873030;29;20021;-78
2023/01/27 02:41:55;;;;;;;7.53;5.88;;;4.30;99.90;;;;;;4873294;29;20031;-78
2023/01/27 02:44:21;;;;;;;9.18;4.43;;;4.20;99.90;;;;;;4873054;29;20037;-78
2023/01/27 02:46:47;;;;;;;6.88;3.50;;;4.20;99.90;;;;;;4873124;29;20058;-78
2023/01/27 02:49:14;;;;;;;5.90;4.13;;;4.30;99.90;;;;;;4872998;29;20496;-78
2023/01/27 02:51:40;;;;;;;14.48;4.40;;;4.30;99.90;;;;;;4873014;29;20037;-79
2023/01/27 02:54:06;;;;;;;7.90;3.45;;;4.20;99.90;;;;;;4873098;29;20045;-79
2023/01/27 02:56:32;;;;;;;5.65;3.75;;;4.20;99.90;;;;;;4858085;29;20036;-79
2023/01/27 02:58:59;;;;;;;7.10;5.35;;;4.20;99.90;;;;;;4872629;29;20041;-79
2023/01/27 03:01:31;;;;;;;6.10;3.92;;;4.20;99.90;;;;;;4883284;29;20033;-79
2023/01/27 03:03:58;;;;;;;6.88;4.43;;;4.20;99.90;;;;;;4890675;29;20041;-77
2023/01/27 03:06:24;;;;;;;13.68;6.32;;;4.20;99.90;;;;;;4890608;29;20081;-78
2023/01/27 03:08:50;;;;;;;7.72;4.72;;;4.30;99.90;;;;;;4891886;29;20124;-78
2023/01/27 03:14:02;;;;;;;8.18;6.32;;;4.30;99.90;;;;;;4890743;29;20025;-78
2023/01/27 03:19:12;;;;;;;7.80;5.38;;;4.30;99.90;;;;;;4871505;29;20053;-78
2023/01/27 03:21:37;;;;;;;7.25;4.65;;;4.20;99.90;;;;;;4856406;29;20033;-79
2023/01/27 03:24:04;;;;;;;11.02;7.40;;;4.20;99.90;;;;;;4871901;29;20037;-79
2023/01/27 03:26:30;;;;;;;8.02;5.50;;;4.10;99.90;;;;;;4856457;29;20037;-78
2023/01/27 03:31:43;;;;;;;9.77;7.78;;;4.20;99.90;;;;;;4871304;29;20037;-79
2023/01/27 03:34:09;;;;;;;8.73;7.20;;;4.20;99.90;;;;;;4871963;29;20052;-78
2023/01/27 03:47:42;;;;;;;11.80;8.57;;;4.20;99.90;;;;;;4890997;29;20056;-78
2023/01/27 03:50:18;;;;;;;16.42;7.78;;;4.10;99.90;;;;;;4891636;29;20036;-78
2023/01/27 03:53:01;;;;;;;11.75;7.55;;;4.10;99.90;;;;;;4890187;29;20056;-78
2023/01/27 03:55:31;;;;;;;15.60;10.93;;;4.10;99.90;;;;;;4890168;29;20040;-78
2023/01/27 03:58:13;;;;;;;12.57;10.75;;;4.10;99.90;;;;;;4874610;29;20037;-78
2023/01/27 04:00:40;;;;;;;8.57;7.30;;;4.20;99.90;;;;;;4832439;29;1709105;-78
2023/01/27 04:08:34;;;;;;;14.35;8.80;;;4.20;99.90;;;;;;4890795;29;20045;-77
2023/01/27 04:13:48;;;;;;;13.27;9.45;;;4.10;99.90;;;;;;4891771;29;20077;-78
2023/01/27 04:16:16;;;;;;;12.82;9.68;;;4.20;99.90;;;;;;4889891;29;20033;-77
2023/01/27 04:18:45;;;;;;;16.10;12.20;;;4.10;99.90;;;;;;4875257;29;20035;-79
2023/01/27 04:21:12;;;;;;;12.15;10.63;;;4.10;99.90;;;;;;4875077;29;20052;-78
2023/01/27 04:23:38;;;;;;;12.93;11.63;;;4.10;99.90;;;;;;4875090;29;20060;-79
2023/01/27 04:26:04;;;;;;;12.40;10.95;;;4.10;99.90;;;;;;4890374;29;20101;-77
2023/01/27 04:28:31;;;;;;;13.90;11.70;;;4.10;99.90;;;;;;4874861;29;20125;-78
2023/01/27 04:30:58;;;;;;;17.67;12.85;;;4.10;99.90;;;;;;4888815;29;20036;-78
2023/01/27 04:33:23;;;;;;;14.48;10.52;;;4.10;99.90;;;;;;4878769;29;20032;-78
2023/01/27 04:35:50;;;;;;;16.70;13.18;;;4.10;99.90;;;;;;4895408;29;20029;-78
2023/01/27 04:38:15;;;;;;;10.98;9.85;;;4.10;99.90;;;;;;4894242;29;20029;-78
2023/01/27 04:40:42;;;;;;;14.82;12.13;;;4.10;99.90;;;;;;4878686;29;20048;-78
2023/01/27 04:43:08;;;;;;;20.48;11.85;;;4.10;99.90;;;;;;4878235;29;20125;-79
2023/01/27 04:45:34;;;;;;;19.70;11.20;;;4.10;99.90;;;;;;4893822;29;20043;-78
2023/01/27 04:48:00;;;;;;;17.80;10.80;;;4.10;99.90;;;;;;4878361;29;20113;-78
2023/01/27 04:50:26;;;;;;;16.67;10.27;;;4.10;99.90;;;;;;4895086;29;20136;-78
2023/01/27 04:52:51;;;;;;;14.52;10.73;;;4.00;99.90;;;;;;4878439;29;20029;-78
2023/01/27 04:55:17;;;;;;;12.43;10.82;;;4.00;99.90;;;;;;4878295;29;20041;-79
2023/01/27 04:57:44;;;;;;;12.65;11.00;;;4.00;99.90;;;;;;4895202;29;20174;-79
2023/01/27 05:00:11;;;;;;;15.88;12.35;;;4.00;99.90;;;;;;4873699;29;20101;-78
2023/01/27 05:02:37;;;;;;;12.38;11.02;;;4.00;99.90;;;;;;4893740;29;20033;-78
2023/01/27 05:05:03;;;;;;;19.75;12.75;;;4.00;99.90;;;;;;4893768;29;20074;-78
2023/01/27 05:07:30;;;;;;;15.05;12.95;;;4.00;99.90;;;;;;4894954;29;20049;-77
2023/01/27 05:09:56;;;;;;;11.73;10.55;;;3.90;99.90;;;;;;4893427;29;20036;-78
2023/01/27 05:12:22;;;;;;;14.63;11.35;;;3.90;99.90;;;;;;4893609;29;20033;-78
2023/01/27 05:14:48;;;;;;;15.07;11.73;;;3.90;99.90;;;;;;4894039;29;20052;-78
2023/01/27 05:17:14;;;;;;;14.85;10.75;;;3.90;99.90;;;;;;4894566;29;20037;-78
2023/01/27 05:19:40;;;;;;;13.93;11.35;;;3.90;99.90;;;;;;4894643;29;20119;-78
2023/01/27 05:22:05;;;;;;;12.70;11.18;;;3.80;99.90;;;;;;4893393;29;20048;-78
2023/01/27 05:24:31;;;;;;;17.05;11.23;;;3.80;99.90;;;;;;4877760;29;20073;-78
2023/01/27 05:26:57;;;;;;;14.63;11.77;;;3.80;99.90;;;;;;4894562;29;20065;-78
2023/01/27 05:29:23;;;;;;;12.48;10.95;;;3.80;99.90;;;;;;4894000;29;20029;-78
2023/01/27 05:31:49;;;;;;;10.73;7.88;;;3.80;99.90;;;;;;4894282;29;20037;-78
2023/01/27 05:34:15;;;;;;;11.75;9.30;;;3.80;99.90;;;;;;4893283;29;20025;-79
2023/01/27 05:36:41;;;;;;;12.25;9.82;;;3.80;99.90;;;;;;4873046;29;21917;-78
2023/01/27 05:39:10;;;;;;;14.80;10.52;;;3.80;99.90;;;;;;4875392;29;20030;-78
2023/01/27 05:41:36;;;;;;;13.32;9.45;;;3.80;99.90;;;;;;4861884;29;20045;-78
2023/01/27 05:44:03;;;;;;;12.50;9.48;;;3.80;99.90;;;;;;4879248;29;20064;-77
2023/01/27 05:46:30;;;;;;;11.18;10.07;;;3.80;99.90;;;;;;4873814;29;20061;-78
2023/01/27 05:49:04;;;;;;;11.25;10.05;;;3.70;99.90;;;;;;4874145;29;20045;-78
2023/01/27 05:51:32;;;;;;;12.02;10.80;;;3.70;99.90;;;;;;4874057;29;20089;-78
2023/01/27 05:53:57;;;;;;;10.25;8.25;;;3.70;99.90;;;;;;4878534;29;20086;-79
2023/01/27 05:56:25;;;;;;;10.73;9.25;;;3.70;99.90;;;;;;4873924;29;20034;-78
2023/01/27 05:58:55;;;;;;;17.13;10.48;;;3.70;99.90;;;;;;4874619;29;20041;-78
2023/01/27 06:01:25;;;;;;;;;;;3.60;99.90;;;;;;4874091;29;20041;-79
2023/01/27 06:03:51;;;;;;;;;;;3.60;99.90;;;;;;4874182;29;20011;-79
2023/01/27 06:06:19;;;;;;;12.77;11.73;;;3.60;99.90;;;;;;4874920;29;19908;-78
2023/01/27 06:08:46;;;;;;;10.95;9.82;;;3.60;99.90;;;;;;4873643;29;20033;-78
2023/01/27 06:11:13;;;;;;;13.07;11.20;;;3.60;99.90;;;;;;4874148;29;20044;-78
2023/01/27 06:13:40;;;;;;;14.38;11.93;;;3.60;99.90;;;;;;4858137;29;20025;-78
2023/01/27 06:16:08;;;;;;;12.27;10.95;;;3.60;99.90;;;;;;4890661;29;20060;-78
2023/01/27 06:18:35;;;;;;;10.95;9.50;;;3.60;99.90;;;;;;4882404;29;20104;-78
2023/01/27 06:21:03;;;;;;;14.23;10.75;;;3.60;99.90;;;;;;4873436;29;20406;-78
2023/01/27 06:23:29;;;;;;;13.90;11.00;;;3.50;99.90;;;;;;4866521;29;20026;-78
2023/01/27 06:25:59;;;;;;;14.05;11.32;;;3.60;99.90;;;;;;4857643;29;20061;-78
2023/01/27 06:28:26;;;;;;;;;;;3.60;99.90;;;;;;4873792;29;20030;-78
2023/01/27 06:30:51;;;;;;;12.75;11.55;;;3.60;99.90;;;;;;4856732;29;19922;-78
2023/01/27 06:33:18;;;;;;;10.15;9.23;;;3.50;99.90;;;;;;4861224;29;20029;-78
2023/01/27 06:35:44;;;;;;;14.45;11.43;;;3.50;99.90;;;;;;4873231;29;20090;-78
2023/01/27 06:38:13;;;;;;;16.15;13.10;;;3.10;99.90;;;;;;4857828;29;20060;-78
2023/01/27 06:40:39;;;;;;;21.42;13.25;;;3.50;99.90;;;;;;4874244;29;20033;-78
2023/01/27 06:43:13;;;;;;;12.10;10.85;;;3.50;99.90;;;;;;4874255;29;20036;-79
2023/01/27 06:45:39;;;;;;;13.05;9.95;;;3.50;99.90;;;;;;4873062;29;20037;-78
2023/01/27 06:48:07;;;;;;;14.80;11.93;;;3.50;99.90;;;;;;4861207;29;20038;-78
2023/01/27 06:50:33;;;;;;;13.18;10.00;;;3.50;99.90;;;;;;4872955;29;20493;-78
2023/01/27 06:53:01;;;;;;;14.57;10.05;;;3.50;99.90;;;;;;4872073;29;20032;-78
2023/01/27 06:55:27;;;;;;;13.90;11.93;;;3.50;99.90;;;;;;4875601;29;20030;-78
2023/01/27 06:57:53;;;;;;;15.30;10.60;;;3.50;99.90;;;;;;4857180;29;20034;-78
2023/01/27 07:00:20;;;;;;;14.32;12.57;;;3.50;99.90;;;;;;4872466;29;20060;-78
2023/01/27 07:02:46;;;;;;;10.65;9.57;;;3.50;99.90;;;;;;4882468;29;20052;-78
2023/01/27 07:05:12;;;;;;;13.00;11.05;;;3.50;99.90;;;;;;4873887;29;20061;-78
2023/01/27 07:07:39;;;;;;;14.02;10.75;;;3.50;99.90;;;;;;4882091;29;20037;-79
2023/01/27 07:10:06;;;;;;;12.65;10.65;;;3.50;99.90;;;;;;4885350;29;20033;-79
2023/01/27 07:12:36;;;;;;;10.82;9.00;;;3.50;99.90;;;;;;4886524;29;20040;-79
2023/01/27 07:15:08;;;;;;;9.35;8.10;;;3.50;99.90;;;;;;4882484;29;20053;-80
2023/01/27 07:17:34;;;;;;;11.68;10.48;;;3.50;99.90;;;;;;4895829;29;20039;-79
2023/01/27 07:20:01;;;;;;;11.73;9.50;;;3.50;99.90;;;;;;4905161;29;20021;-80
2023/01/27 07:22:27;;;;;;;13.48;10.55;;;3.50;99.90;;;;;;4904524;29;20045;-79
2023/01/27 07:24:54;;;;;;;10.32;9.32;;;3.50;99.90;;;;;;4904058;29;20037;-80
2023/01/27 07:27:21;;;;;;;11.50;9.90;;;3.50;99.90;;;;;;4904412;29;20032;-79
2023/01/27 07:29:47;;;;;;;14.57;11.45;;;3.60;99.90;;;;;;4904166;29;20033;-80
2023/01/27 07:32:13;;;;;;;16.70;14.07;;;3.60;99.90;;;;;;4865763;29;20049;-80
2023/01/27 07:34:38;;;;;;;12.32;9.50;;;3.60;99.90;;;;;;4851059;29;20510;-80
2023/01/27 07:37:04;;;;;;;11.82;9.63;;;3.70;99.90;;;;;;4866607;29;20018;-80
2023/01/27 07:39:32;;;;;;;12.55;11.25;;;3.70;99.90;;;;;;4866951;29;20040;-80
2023/01/27 07:42:00;;;;;;;12.65;10.20;;;3.70;99.90;;;;;;4866805;29;20022;-80
2023/01/27 07:44:27;;;;;;;7.03;6.33;;;3.70;99.90;;;;;;4865713;29;20014;-80
2023/01/27 07:46:54;;;;;;;10.73;9.30;;;3.70;99.90;;;;;;4876431;29;20369;-80
2023/01/27 07:49:20;;;;;;;10.77;9.68;;;3.70;99.90;;;;;;4880852;29;20049;-80
2023/01/27 07:51:46;;;;;;;11.30;9.15;;;3.70;99.90;;;;;;4879863;29;20056;-79
2023/01/27 07:54:12;;;;;;;10.68;7.57;;;3.70;99.90;;;;;;4880460;29;20033;-80
2023/01/27 07:56:37;;;;;;;13.95;8.27;;;3.80;99.90;;;;;;4880590;29;20038;-81
2023/01/27 07:59:03;;;;;;;8.80;8.00;;;3.80;99.90;;;;;;4864058;29;20045;-80
2023/01/27 08:01:29;;;;;;;12.50;9.57;;;3.90;99.90;;;;;;4884280;29;20029;-80
2023/01/27 08:03:55;;;;;;;8.88;7.35;;;3.80;99.90;;;;;;4881590;29;20090;-80
2023/01/27 08:06:21;;;;;;;9.40;8.00;;;3.90;99.90;;;;;;4881403;29;20066;-80
2023/01/27 08:08:47;;;;;;;9.73;8.25;;;3.90;99.90;;;;;;4883947;29;20026;-79
2023/01/27 08:11:14;;;;;;;13.40;9.88;;;3.90;99.90;;;;;;4884688;29;20070;-81
2023/01/27 08:13:40;;;;;;;9.65;8.70;;;3.90;99.90;;;;;;4882827;29;20037;-80
2023/01/27 08:16:09;;;;;;;8.27;7.57;;;4.00;99.90;;;;;;4883219;29;20034;-80
2023/01/27 08:18:35;;;;;;;9.40;8.45;;;4.00;99.90;;;;;;4885770;29;20025;-81
2023/01/27 08:34:54;;;;;;;7.68;6.78;;;;;;;;;;4902623;29;20062;-80
2023/01/27 08:37:21;;;;;;;8.40;7.70;;;;;;;;;;4919736;29;20018;-80
2023/01/27 08:39:47;;;;;;;7.60;6.97;;;;;;;;;;5099377;23;20045;-79
2023/01/27 08:42:13;;;;;;;7.63;6.85;;;;;;;;;;4883075;29;20034;-79
2023/01/27 08:52:47;;;;;;;9.82;7.00;;;;;;;;;;4883440;29;20113;-79
2023/01/27 08:55:14;;;;;;;7.60;6.78;;;;;;;;;;4881339;29;20045;-79
2023/01/27 09:09:07;;;;;;;5.70;5.10;;;5.40;99.90;;;;;;5336259;23;20294;-79
2023/01/27 09:11:35;;;;;;;6.95;6.10;;;5.50;99.90;;;;;;5359938;23;20056;-79
2023/01/27 09:14:02;;;;;;;12.15;5.70;;;;;;;;;;4866438;29;20437;-79
2023/01/27 09:16:28;;;;;;;6.75;6.07;;;;;;;;;;4881946;29;20013;-80
2023/01/27 09:27:21;;;;;;;5.18;4.68;;;;;;;;;;4976708;23;20053;-79
2023/01/27 09:29:48;;;;;;;5.55;5.15;;;;;;;;;;4869194;29;20046;-79
2023/01/27 09:32:14;;;;;;;5.63;5.22;;;;;;;;;;4869489;29;20050;-80
2023/01/27 09:34:40;;;;;;;5.95;4.63;;;;;;;;;;4869398;29;20078;-80
2023/01/27 09:37:09;;;;;;;6.55;4.97;;;5.20;99.90;;;;;;4869762;29;20034;-80
2023/01/27 09:39:44;;;;;;;4.57;4.15;;;5.20;99.90;;;;;;4869077;29;20022;-79
2023/01/27 09:42:32;;;;;;;4.88;4.47;;;5.10;99.90;;;;;;4869144;29;20034;-80
2023/01/27 09:45:07;;;;;;;6.43;4.05;;;5.10;99.90;;;;;;4869543;29;20030;-80
2023/01/27 09:47:52;;;;;;;3.92;3.55;;;5.10;99.90;;;;;;4852945;29;20049;-80
2023/01/27 09:50:39;;;;;;;6.53;5.80;;;5.10;99.90;;;;;;4866874;29;20054;-81
2023/01/27 09:53:18;;;;;;;4.90;4.50;;;5.00;99.90;;;;;;4869747;29;20037;-79
2023/01/27 09:56:10;;;;;;;5.00;4.20;;;5.10;99.90;;;;;;4869681;29;20021;-81
2023/01/27 10:07:06;;;;;;;5.90;5.35;;;5.10;99.90;;;;;;4789210;23;20048;-80
2023/01/27 10:15:55;;;;;;;7.80;6.55;;;5.20;99.90;;;;;;5412398;23;20084;-79
2023/01/27 10:18:42;;;;;;;5.13;4.80;;;5.20;99.90;;;;;;4886008;29;20049;-80
2023/01/27 10:21:22;;;;;;;4.43;4.13;;;5.30;99.90;;;;;;4871877;29;20026;-79
2023/01/27 10:24:20;;;;;;;4.63;4.20;;;5.30;99.90;;;;;;4885802;29;20037;-79
2023/01/27 10:26:50;;;;;;;4.15;3.85;;;5.40;99.90;;;;;;4882322;29;20048;-79
2023/01/27 11:00:44;;;;;;;7.25;6.63;;;5.70;99.90;;;;;;2989951;23;20052;-79
2023/01/27 11:06:03;;;;;;;4.57;4.18;;;5.80;99.90;;;;;;4519170;27;20044;-78
2023/01/27 11:19:39;;;;;;;5.95;5.43;;;6.00;99.90;;;;;;5205444;23;20032;-79
2023/01/27 11:33:23;;;;;;;4.30;3.90;;;6.00;99.90;;;;;;5023967;23;20072;-77
2023/01/27 11:35:50;;;;;;;3.75;3.35;;;6.00;99.90;;;;;;4872489;29;20030;-77
2023/01/27 11:38:20;;;;;;;2.92;2.72;;;6.00;99.90;;;;;;4873402;29;20050;-78
2023/01/27 11:40:49;;;;;;;2.70;2.50;;;5.90;99.90;;;;;;4866445;29;20036;-80
2023/01/27 11:43:19;;;;;;;3.25;2.95;;;5.90;99.90;;;;;;4855031;29;20030;-77
2023/01/27 11:45:48;;;;;;;4.35;3.95;;;5.90;99.90;;;;;;4865826;29;20037;-78
2023/01/27 11:48:16;;;;;;;2.90;2.70;;;5.90;99.90;;;;;;4872996;29;20037;-78
2023/01/27 11:50:43;;;;;;;3.67;3.30;;;5.90;99.90;;;;;;4872250;29;20116;-79
2023/01/27 11:53:15;;;;;;;4.18;3.88;;;5.90;99.90;;;;;;4873085;29;20507;-79
2023/01/27 11:55:53;;;;;;;7.10;3.25;;;5.80;99.90;;;;;;4872160;29;20041;-78
2023/01/27 11:58:26;;;;;;;3.65;3.35;;;5.70;99.90;;;;;;4872123;29;20029;-77
2023/01/27 12:01:16;;;;;;;3.85;3.55;;;5.80;99.90;;;;;;4870566;29;20106;-77
2023/01/27 12:04:21;;;;;;;3.53;3.30;;;5.70;99.90;;;;;;4873320;29;20041;-77
2023/01/27 12:07:05;;;;;;;4.43;4.03;;;5.70;99.90;;;;;;4871868;29;20033;-77
2023/01/27 12:09:36;;;;;;;4.80;3.42;;;5.70;99.90;;;;;;4873354;29;20398;-79
2023/01/27 12:12:14;;;;;;;3.55;3.25;;;5.70;99.90;;;;;;4872483;29;20036;-79
2023/01/27 12:14:53;;;;;;;4.07;3.78;;;5.70;99.90;;;;;;4871806;29;20370;-79
2023/01/27 12:17:39;;;;;;;3.38;3.13;;;5.70;99.90;;;;;;4871729;29;20037;-79
2023/01/27 12:20:31;;;;;;;4.78;4.38;;;5.70;99.90;;;;;;4872968;29;20041;-79
2023/01/27 12:23:16;;;;;;;3.40;3.10;;;5.70;99.90;;;;;;4877437;29;20057;-79
2023/01/27 12:25:52;;;;;;;3.38;3.13;;;5.60;99.90;;;;;;4873369;29;20134;-79
2023/01/27 12:28:23;;;;;;;4.45;4.05;;;5.70;99.90;;;;;;4871577;29;20100;-77
2023/01/27 12:30:51;;;;;;;5.90;3.60;;;5.60;99.90;;;;;;4870998;29;20089;-79
2023/01/27 12:33:25;;;;;;;4.15;3.85;;;5.70;99.90;;;;;;4869887;29;20038;-77
2023/01/27 12:35:55;;;;;;;3.65;3.35;;;5.70;99.90;;;;;;4871926;29;20030;-77
2023/01/27 12:38:24;;;;;;;5.50;4.85;;;5.80;99.90;;;;;;4871401;29;20069;-80
2023/01/27 12:41:01;;;;;;;8.07;3.15;;;5.80;99.90;;;;;;4872842;29;20033;-77
2023/01/27 12:43:27;;;;;;;3.47;3.05;;;5.80;99.90;;;;;;4872952;29;20038;-79
2023/01/27 12:46:02;;;;;;;3.63;3.35;;;5.80;99.90;;;;;;4871782;29;20038;-79
2023/01/27 12:48:32;;;;;;;3.75;3.35;;;5.80;99.90;;;;;;4872720;29;20048;-79
2023/01/27 12:51:13;;;;;;;3.72;3.30;;;5.90;99.90;;;;;;4873716;29;20048;-79
2023/01/27 12:53:42;;;;;;;4.85;4.35;;;5.90;99.90;;;;;;4874942;29;20034;-77
2023/01/27 12:56:13;;;;;;;3.63;3.33;;;5.80;99.90;;;;;;4875182;29;20029;-79
2023/01/27 12:58:40;;;;;;;4.20;3.80;;;5.70;99.90;;;;;;4876416;29;20104;-79
2023/01/27 13:01:27;;;;;;;4.07;3.67;;;5.70;99.90;;;;;;4875151;29;20066;-79
2023/01/27 13:04:17;;;;;;;4.63;3.55;;;5.70;99.90;;;;;;4876287;29;20044;-79
2023/01/27 13:07:01;;;;;;;5.63;4.85;;;5.60;99.90;;;;;;4865513;29;20041;-79
2023/01/27 13:09:32;;;;;;;6.13;4.53;;;5.50;99.90;;;;;;4877269;29;20411;-78
2023/01/27 13:12:19;;;;;;;6.43;4.40;;;5.60;99.90;;;;;;4875381;29;20037;-79
2023/01/27 13:14:50;;;;;;;5.40;4.50;;;5.60;99.90;;;;;;4865766;29;20033;-78
2023/01/27 13:17:27;;;;;;;4.30;3.90;;;5.60;99.90;;;;;;4876080;29;20090;-78
2023/01/27 13:19:57;;;;;;;4.53;3.53;;;5.60;99.90;;;;;;4874727;29;20037;-79
2023/01/27 13:22:25;;;;;;;3.08;2.80;;;5.60;99.90;;;;;;4876069;29;20065;-79
2023/01/27 13:24:57;;;;;;;3.03;2.83;;;5.30;99.90;;;;;;4875861;29;20036;-79
2023/01/27 13:27:24;;;;;;;4.55;4.05;;;5.60;99.90;;;;;;4873208;29;20438;-79
2023/01/27 13:30:13;;;;;;;5.05;4.18;;;5.60;99.90;;;;;;4905720;29;20030;-79
2023/01/27 13:32:41;;;;;;;4.68;3.53;;;5.60;99.90;;;;;;4871595;29;20073;-79
2023/01/27 13:35:39;;;;;;;6.97;3.83;;;5.60;99.90;;;;;;4857267;29;20029;-79
2023/01/27 13:38:28;;;;;;;3.63;3.33;;;5.70;99.90;;;;;;4857268;29;20117;-79
2023/01/27 13:40:54;;;;;;;4.20;3.80;;;5.70;99.90;;;;;;4856103;29;20030;-79
2023/01/27 13:43:24;;;;;;;4.45;4.05;;;5.70;99.90;;;;;;4840383;29;20049;-80
2023/01/27 13:45:56;;;;;;;4.30;3.85;;;5.70;99.90;;;;;;4856910;29;20030;-79
2023/01/27 13:48:30;;;;;;;3.72;3.17;;;5.70;99.90;;;;;;4866487;29;20025;-79
2023/01/27 13:51:10;;;;;;;10.55;4.38;;;5.70;99.90;;;;;;4858515;29;20041;-79
2023/01/27 13:53:37;;;;;;;5.88;5.35;;;5.70;99.90;;;;;;4875400;29;20038;-79
2023/01/27 13:56:16;;;;;;;9.73;6.78;;;5.70;99.90;;;;;;4874678;29;20025;-78
2023/01/27 13:59:23;;;;;;;9.02;4.75;;;5.80;99.90;;;;;;4858393;29;20036;-79
2023/01/27 14:02:05;;;;;;;16.63;9.18;;;5.70;99.90;;;;;;4873519;29;20045;-79
2023/01/27 14:04:58;;;;;;;6.22;5.65;;;5.70;99.90;;;;;;4875290;29;20029;-79
2023/01/27 14:07:34;;;;;;;5.28;4.78;;;5.80;99.90;;;;;;4881798;29;20044;-79
2023/01/27 14:09:59;;;;;;;5.57;5.00;;;5.70;99.90;;;;;;4875118;29;20037;-79
2023/01/27 14:12:37;;;;;;;5.65;5.15;;;5.70;99.90;;;;;;4873788;29;20034;-79
2023/01/27 14:15:24;;;;;;;4.30;3.90;;;5.70;99.90;;;;;;4875026;29;20038;-80
2023/01/27 14:17:53;;;;;;;4.53;4.13;;;5.70;99.90;;;;;;4875091;29;20029;-79
2023/01/27 14:20:40;;;;;;;18.10;13.20;;;5.80;99.90;;;;;;4875101;29;20052;-78
2023/01/27 14:23:15;;;;;;;8.88;6.68;;;5.70;99.90;;;;;;4873465;29;20029;-79
2023/01/27 14:25:54;;;;;;;5.55;4.78;;;5.70;99.90;;;;;;4874805;29;20040;-79
2023/01/27 14:28:42;;;;;;;4.95;4.55;;;5.70;99.90;;;;;;4873485;29;20030;-79
2023/01/27 14:31:22;;;;;;;5.63;4.22;;;5.70;99.90;;;;;;4873357;29;20450;-78
2023/01/27 14:34:23;;;;;;;4.05;3.83;;;5.60;99.90;;;;;;4874806;29;20037;-79
2023/01/27 14:36:58;;;;;;;4.45;3.90;;;5.60;99.90;;;;;;4874706;29;20034;-79
2023/01/27 14:39:29;;;;;;;4.40;4.00;;;5.60;99.90;;;;;;4873196;29;20030;-79
2023/01/27 14:42:27;;;;;;;4.13;3.47;;;5.60;99.90;;;;;;4874357;29;20033;-79
2023/01/27 14:45:12;;;;;;;3.25;2.95;;;5.60;99.90;;;;;;4874571;29;20042;-78
2023/01/27 14:48:02;;;;;;;3.42;3.13;;;5.60;99.90;;;;;;4874333;29;20439;-78
2023/01/27 14:50:39;;;;;;;5.05;3.30;;;5.60;99.90;;;;;;4874077;29;20044;-78
2023/01/27 14:53:37;;;;;;;4.95;4.55;;;5.60;99.90;;;;;;4874392;29;20490;-79
2023/01/27 14:56:33;;;;;;;3.42;3.13;;;5.50;99.90;;;;;;4873190;29;20097;-79
2023/01/27 14:59:13;;;;;;;3.97;3.60;;;5.50;99.90;;;;;;4874407;29;20388;-79
2023/01/27 15:01:42;;;;;;;4.00;3.70;;;5.50;99.90;;;;;;4874538;29;20033;-79
2023/01/27 15:04:35;;;;;;;2.85;2.53;;;5.40;99.90;;;;;;4872589;29;20058;-79
2023/01/27 15:07:13;;;;;;;3.17;2.88;;;5.40;99.90;;;;;;4875870;29;20033;-78
2023/01/27 15:09:41;;;;;;;2.50;2.30;;;5.30;99.90;;;;;;4892793;29;20040;-79
2023/01/27 15:12:24;;;;;;;2.45;2.33;;;5.30;99.90;;;;;;4878566;29;20037;-79
2023/01/27 15:15:18;;;;;;;4.15;2.78;;;5.20;99.90;;;;;;4873484;29;20040;-79
2023/01/27 15:18:02;;;;;;;2.63;2.42;;;5.20;99.90;;;;;;4874018;29;20065;-79
2023/01/27 15:20:55;;;;;;;3.03;2.83;;;5.10;99.90;;;;;;4873422;29;20120;-78
2023/01/27 15:23:58;;;;;;;4.80;4.45;;;5.10;99.90;;;;;;4854028;29;20034;-79
2023/01/27 15:26:27;;;;;;;4.15;3.85;;;5.10;99.90;;;;;;4855450;29;20033;-79
2023/01/27 15:28:53;;;;;;;5.53;4.95;;;5.10;99.90;;;;;;4855125;29;20076;-79
2023/01/27 15:31:23;;;;;;;4.55;4.13;;;5.10;99.90;;;;;;4853686;29;20038;-79
2023/01/27 15:33:54;;;;;;;6.63;4.00;;;5.10;99.90;;;;;;4854275;29;20040;-79
2023/01/27 15:36:25;;;;;;;3.95;3.60;;;5.10;99.90;;;;;;4847077;29;20469;-79
2023/01/27 15:39:15;;;;;;;4.05;3.50;;;5.10;99.90;;;;;;4853884;29;20048;-79
2023/01/27 15:41:50;;;;;;;3.80;3.40;;;5.10;99.90;;;;;;4869985;29;20058;-79
2023/01/27 15:44:23;;;;;;;2.95;2.72;;;5.00;99.90;;;;;;4843903;29;20037;-79
2023/01/27 15:46:51;;;;;;;7.47;3.47;;;5.00;99.90;;;;;;4873131;29;20062;-79